sensor_id;sensor_type;location;lat;lon;timestamp;pressure;altitude;pressure_sealevel;temperature;humidity
13080;BME280;6606;49.154;9.280;2022-07-15T00:02:05;99897.09;;;18.40;98.05
13080;BME280;6606;49.154;9.280;2022-07-15T00:04:31;99901.25;;;18.33;98.64
13080;BME280;6606;49.154;9.280;2022-07-15T00:06:59;99897.47;;;18.24;97.83
13080;BME280;6606;49.154;9.280;2022-07-15T00:09:25;99900.25;;;18.23;100.00
13080;BME280;6606;49.154;9.280;2022-07-15T00:12:06;99903.94;;;18.22;100.00
13080;BME280;6606;49.154;9.280;2022-07-15T00:14:32;99905.75;;;18.10;100.00
13080;BME280;6606;49.154;9.280;2022-07-15T00:16:59;99902.19;;;18.10;100.00
13080;BME280;6606;49.154;9.280;2022-07-15T00:19:27;99900.94;;;17.91;100.00
13080;BME280;6606;49.154;9.280;2022-07-15T00:21:54;99906.34;;;18.02;100.00
13080;BME280;6606;49.154;9.280;2022-07-15T00:24:21;99915.47;;;18.00;100.00
13080;BME280;6606;49.154;9.280;2022-07-15T00:26:47;99908.38;;;17.99;100.00
13080;BME280;6606;49.154;9.280;2022-07-15T00:29:14;99904.25;;;17.95;100.00
13080;BME280;6606;49.154;9.280;2022-07-15T00:31:41;99901.41;;;17.85;100.00
13080;BME280;6606;49.154;9.280;2022-07-15T00:34:08;99905.50;;;17.78;100.00
13080;BME280;6606;49.154;9.280;2022-07-15T00:36:36;99902.78;;;17.67;100.00
13080;BME280;6606;49.154;9.280;2022-07-15T00:39:03;99902.53;;;17.58;100.00
13080;BME280;6606;49.154;9.280;2022-07-15T00:41:35;99904.59;;;17.55;100.00
13080;BME280;6606;49.154;9.280;2022-07-15T00:44:02;99908.34;;;17.52;100.00
13080;BME280;6606;49.154;9.280;2022-07-15T00:46:30;99909.78;;;17.45;100.00
13080;BME280;6606;49.154;9.280;2022-07-15T00:48:57;99914.88;;;17.37;100.00
13080;BME280;6606;49.154;9.280;2022-07-15T00:51:25;99909.22;;;17.29;100.00
13080;BME280;6606;49.154;9.280;2022-07-15T00:53:54;99912.38;;;17.23;100.00
13080;BME280;6606;49.154;9.280;2022-07-15T00:56:23;99911.63;;;17.21;100.00
13080;BME280;6606;49.154;9.280;2022-07-15T00:58:53;99901.13;;;17.18;100.00
13080;BME280;6606;49.154;9.280;2022-07-15T01:01:20;99909.16;;;17.18;100.00
13080;BME280;6606;49.154;9.280;2022-07-15T01:03:50;99910.34;;;17.13;100.00
13080;BME280;6606;49.154;9.280;2022-07-15T01:06:18;99902.66;;;17.09;100.00
13080;BME280;6606;49.154;9.280;2022-07-15T01:08:45;99898.50;;;17.05;100.00
13080;BME280;6606;49.154;9.280;2022-07-15T01:11:13;99896.72;;;16.92;100.00
13080;BME280;6606;49.154;9.280;2022-07-15T01:13:41;99893.75;;;16.84;100.00
13080;BME280;6606;49.154;9.280;2022-07-15T01:16:08;99898.69;;;16.78;100.00
13080;BME280;6606;49.154;9.280;2022-07-15T01:18:35;99907.25;;;16.70;100.00
13080;BME280;6606;49.154;9.280;2022-07-15T01:21:03;99901.47;;;16.63;100.00
13080;BME280;6606;49.154;9.280;2022-07-15T01:23:30;99910.88;;;16.56;100.00
13080;BME280;6606;49.154;9.280;2022-07-15T01:26:09;99902.78;;;16.45;100.00
13080;BME280;6606;49.154;9.280;2022-07-15T01:28:38;99907.59;;;16.40;100.00
13080;BME280;6606;49.154;9.280;2022-07-15T01:31:06;99907.28;;;16.32;100.00
13080;BME280;6606;49.154;9.280;2022-07-15T01:33:35;99912.63;;;16.32;100.00
13080;BME280;6606;49.154;9.280;2022-07-15T01:36:06;99917.34;;;16.28;100.00
13080;BME280;6606;49.154;9.280;2022-07-15T01:38:35;99916.69;;;16.24;100.00
13080;BME280;6606;49.154;9.280;2022-07-15T01:41:03;99906.22;;;16.21;100.00
13080;BME280;6606;49.154;9.280;2022-07-15T01:43:29;99907.63;;;16.14;100.00
13080;BME280;6606;49.154;9.280;2022-07-15T01:45:56;99906.13;;;16.10;100.00
13080;BME280;6606;49.154;9.280;2022-07-15T01:48:34;99904.94;;;16.01;100.00
13080;BME280;6606;49.154;9.280;2022-07-15T01:51:39;99913.81;;;16.02;100.00
13080;BME280;6606;49.154;9.280;2022-07-15T01:54:05;99912.19;;;15.87;100.00
13080;BME280;6606;49.154;9.280;2022-07-15T01:56:32;99903.19;;;15.88;100.00
13080;BME280;6606;49.154;9.280;2022-07-15T01:59:02;99906.97;;;15.85;100.00
13080;BME280;6606;49.154;9.280;2022-07-15T02:01:29;99902.00;;;15.79;100.00
13080;BME280;6606;49.154;9.280;2022-07-15T02:03:58;99902.13;;;15.77;100.00
13080;BME280;6606;49.154;9.280;2022-07-15T02:06:25;99912.84;;;15.77;100.00
13080;BME280;6606;49.154;9.280;2022-07-15T02:08:53;99911.31;;;15.73;100.00
13080;BME280;6606;49.154;9.280;2022-07-15T02:11:22;99907.03;;;15.71;100.00
13080;BME280;6606;49.154;9.280;2022-07-15T02:13:49;99900.03;;;15.68;100.00
13080;BME280;6606;49.154;9.280;2022-07-15T02:16:17;99903.69;;;15.67;100.00
13080;BME280;6606;49.154;9.280;2022-07-15T02:18:44;99907.03;;;15.71;100.00
13080;BME280;6606;49.154;9.280;2022-07-15T02:21:11;99900.16;;;15.67;100.00
13080;BME280;6606;49.154;9.280;2022-07-15T02:23:38;99906.75;;;15.61;100.00
13080;BME280;6606;49.154;9.280;2022-07-15T02:26:07;99908.69;;;15.59;100.00
13080;BME280;6606;49.154;9.280;2022-07-15T02:28:34;99904.22;;;15.59;100.00
13080;BME280;6606;49.154;9.280;2022-07-15T02:31:03;99911.59;;;15.56;100.00
13080;BME280;6606;49.154;9.280;2022-07-15T02:33:33;99910.91;;;15.52;100.00
13080;BME280;6606;49.154;9.280;2022-07-15T02:36:07;99917.00;;;15.54;100.00
13080;BME280;6606;49.154;9.280;2022-07-15T02:38:34;99912.72;;;15.52;100.00
13080;BME280;6606;49.154;9.280;2022-07-15T02:41:02;99924.78;;;15.45;100.00
13080;BME280;6606;49.154;9.280;2022-07-15T02:43:32;99922.97;;;15.45;100.00
13080;BME280;6606;49.154;9.280;2022-07-15T02:45:59;99932.78;;;15.45;100.00
13080;BME280;6606;49.154;9.280;2022-07-15T02:48:26;99927.66;;;15.42;100.00
13080;BME280;6606;49.154;9.280;2022-07-15T02:50:58;99938.75;;;15.35;100.00
13080;BME280;6606;49.154;9.280;2022-07-15T02:53:26;99928.91;;;15.36;100.00
13080;BME280;6606;49.154;9.280;2022-07-15T02:55:59;99933.63;;;15.32;100.00
13080;BME280;6606;49.154;9.280;2022-07-15T02:58:26;99931.13;;;15.29;100.00
13080;BME280;6606;49.154;9.280;2022-07-15T03:00:54;99934.47;;;15.33;100.00
13080;BME280;6606;49.154;9.280;2022-07-15T03:03:21;99939.53;;;15.37;100.00
13080;BME280;6606;49.154;9.280;2022-07-15T03:05:48;99929.78;;;15.36;100.00
13080;BME280;6606;49.154;9.280;2022-07-15T03:08:16;99935.03;;;15.38;100.00
13080;BME280;6606;49.154;9.280;2022-07-15T03:10:43;99935.13;;;15.36;100.00
13080;BME280;6606;49.154;9.280;2022-07-15T03:13:10;99940.88;;;15.30;100.00
13080;BME280;6606;49.154;9.280;2022-07-15T03:15:37;99946.22;;;15.30;100.00
13080;BME280;6606;49.154;9.280;2022-07-15T03:18:06;99937.28;;;15.17;100.00
13080;BME280;6606;49.154;9.280;2022-07-15T03:20:33;99941.44;;;15.21;100.00
13080;BME280;6606;49.154;9.280;2022-07-15T03:23:01;99937.66;;;15.25;100.00
13080;BME280;6606;49.154;9.280;2022-07-15T03:25:29;99939.81;;;15.33;100.00
13080;BME280;6606;49.154;9.280;2022-07-15T03:28:01;99941.22;;;15.38;100.00
13080;BME280;6606;49.154;9.280;2022-07-15T03:30:32;99941.13;;;15.40;100.00
13080;BME280;6606;49.154;9.280;2022-07-15T03:32:59;99950.94;;;15.39;100.00
13080;BME280;6606;49.154;9.280;2022-07-15T03:35:27;99952.88;;;15.37;100.00
13080;BME280;6606;49.154;9.280;2022-07-15T03:37:55;99952.88;;;15.37;100.00
13080;BME280;6606;49.154;9.280;2022-07-15T03:40:22;99952.88;;;15.37;100.00
13080;BME280;6606;49.154;9.280;2022-07-15T03:42:49;99958.00;;;15.41;100.00
13080;BME280;6606;49.154;9.280;2022-07-15T03:45:15;99956.28;;;15.39;100.00
13080;BME280;6606;49.154;9.280;2022-07-15T03:47:42;99957.16;;;15.40;100.00
13080;BME280;6606;49.154;9.280;2022-07-15T03:50:12;99960.69;;;15.41;100.00
13080;BME280;6606;49.154;9.280;2022-07-15T03:52:41;99954.38;;;15.42;100.00
13080;BME280;6606;49.154;9.280;2022-07-15T03:55:09;99953.41;;;15.43;100.00
13080;BME280;6606;49.154;9.280;2022-07-15T03:57:37;99956.84;;;15.45;100.00
13080;BME280;6606;49.154;9.280;2022-07-15T04:00:05;99959.50;;;15.45;100.00
13080;BME280;6606;49.154;9.280;2022-07-15T04:02:40;99959.13;;;15.51;100.00
13080;BME280;6606;49.154;9.280;2022-07-15T04:05:08;99953.94;;;15.48;100.00
13080;BME280;6606;49.154;9.280;2022-07-15T04:07:34;99959.97;;;15.51;100.00
13080;BME280;6606;49.154;9.280;2022-07-15T04:10:04;99962.34;;;15.56;100.00
13080;BME280;6606;49.154;9.280;2022-07-15T04:12:32;99960.41;;;15.58;100.00
13080;BME280;6606;49.154;9.280;2022-07-15T04:14:58;99963.41;;;15.53;100.00
13080;BME280;6606;49.154;9.280;2022-07-15T04:17:25;99962.22;;;15.57;100.00
13080;BME280;6606;49.154;9.280;2022-07-15T04:19:52;99958.69;;;15.57;100.00
13080;BME280;6606;49.154;9.280;2022-07-15T04:22:19;99959.47;;;15.59;100.00
13080;BME280;6606;49.154;9.280;2022-07-15T04:24:49;99963.00;;;15.59;100.00
13080;BME280;6606;49.154;9.280;2022-07-15T04:27:18;99959.47;;;15.59;100.00
13080;BME280;6606;49.154;9.280;2022-07-15T04:29:45;99965.38;;;15.64;100.00
13080;BME280;6606;49.154;9.280;2022-07-15T04:32:13;99965.94;;;15.69;100.00
13080;BME280;6606;49.154;9.280;2022-07-15T04:34:45;99961.34;;;15.71;100.00
13080;BME280;6606;49.154;9.280;2022-07-15T04:37:11;99958.28;;;15.77;100.00
13080;BME280;6606;49.154;9.280;2022-07-15T04:39:40;99959.44;;;15.86;100.00
13080;BME280;6606;49.154;9.280;2022-07-15T04:42:07;99956.78;;;15.86;100.00
13080;BME280;6606;49.154;9.280;2022-07-15T04:44:37;99953.03;;;15.89;100.00
13080;BME280;6606;49.154;9.280;2022-07-15T04:47:10;99959.69;;;15.96;100.00
13080;BME280;6606;49.154;9.280;2022-07-15T04:49:42;99967.84;;;16.07;100.00
13080;BME280;6606;49.154;9.280;2022-07-15T04:52:27;99963.97;;;16.11;100.00
13080;BME280;6606;49.154;9.280;2022-07-15T04:54:56;99965.50;;;16.15;100.00
13080;BME280;6606;49.154;9.280;2022-07-15T04:57:23;99965.91;;;16.22;100.00
13080;BME280;6606;49.154;9.280;2022-07-15T04:59:51;99962.69;;;16.30;100.00
13080;BME280;6606;49.154;9.280;2022-07-15T05:02:18;99971.81;;;16.40;100.00
13080;BME280;6606;49.154;9.280;2022-07-15T05:04:47;99974.94;;;16.46;100.00
13080;BME280;6606;49.154;9.280;2022-07-15T05:07:15;99979.00;;;16.52;100.00
13080;BME280;6606;49.154;9.280;2022-07-15T05:09:43;99971.72;;;16.54;100.00
13080;BME280;6606;49.154;9.280;2022-07-15T05:12:11;99966.00;;;16.59;100.00
13080;BME280;6606;49.154;9.280;2022-07-15T05:14:59;99976.19;;;16.66;100.00
13080;BME280;6606;49.154;9.280;2022-07-15T05:17:26;99979.16;;;16.75;100.00
13080;BME280;6606;49.154;9.280;2022-07-15T05:19:53;99975.34;;;16.79;100.00
13080;BME280;6606;49.154;9.280;2022-07-15T05:22:23;99978.97;;;16.90;100.00
13080;BME280;6606;49.154;9.280;2022-07-15T05:24:50;99978.53;;;17.09;100.00
13080;BME280;6606;49.154;9.280;2022-07-15T05:27:17;99982.56;;;17.15;100.00
13080;BME280;6606;49.154;9.280;2022-07-15T05:29:47;99980.06;;;17.25;100.00
13080;BME280;6606;49.154;9.280;2022-07-15T05:32:17;99979.16;;;17.37;100.00
13080;BME280;6606;49.154;9.280;2022-07-15T05:34:45;99983.63;;;17.49;100.00
13080;BME280;6606;49.154;9.280;2022-07-15T05:37:15;99981.22;;;17.57;100.00
13080;BME280;6606;49.154;9.280;2022-07-15T05:39:41;99990.31;;;17.68;100.00
13080;BME280;6606;49.154;9.280;2022-07-15T05:42:21;99977.47;;;17.84;100.00
13080;BME280;6606;49.154;9.280;2022-07-15T05:44:48;99981.38;;;17.91;100.00
13080;BME280;6606;49.154;9.280;2022-07-15T05:47:16;99983.63;;;17.97;100.00
13080;BME280;6606;49.154;9.280;2022-07-15T05:49:45;99982.63;;;17.98;100.00
13080;BME280;6606;49.154;9.280;2022-07-15T05:52:14;99986.44;;;18.07;100.00
13080;BME280;6606;49.154;9.280;2022-07-15T05:54:41;99984.94;;;18.27;100.00
13080;BME280;6606;49.154;9.280;2022-07-15T05:57:09;99984.47;;;18.44;100.00
13080;BME280;6606;49.154;9.280;2022-07-15T05:59:36;99987.88;;;18.46;100.00
13080;BME280;6606;49.154;9.280;2022-07-15T06:02:02;99990.34;;;18.61;100.00
13080;BME280;6606;49.154;9.280;2022-07-15T06:04:32;99992.44;;;18.91;100.00
13080;BME280;6606;49.154;9.280;2022-07-15T06:06:59;99992.69;;;18.99;100.00
13080;BME280;6606;49.154;9.280;2022-07-15T06:09:26;100001.38;;;19.14;100.00
13080;BME280;6606;49.154;9.280;2022-07-15T06:11:53;99998.63;;;19.37;99.60
13080;BME280;6606;49.154;9.280;2022-07-15T06:14:20;100000.34;;;19.38;94.91
13080;BME280;6606;49.154;9.280;2022-07-15T06:16:47;100001.53;;;19.56;95.54
13080;BME280;6606;49.154;9.280;2022-07-15T06:19:15;100004.09;;;19.46;97.26
13080;BME280;6606;49.154;9.280;2022-07-15T06:21:43;100004.44;;;19.75;97.96
13080;BME280;6606;49.154;9.280;2022-07-15T06:24:09;100000.31;;;19.92;97.14
13080;BME280;6606;49.154;9.280;2022-07-15T06:26:39;100002.34;;;20.00;92.42
13080;BME280;6606;49.154;9.280;2022-07-15T06:29:06;100001.16;;;20.25;92.42
13080;BME280;6606;49.154;9.280;2022-07-15T06:31:33;99996.16;;;20.41;86.69
13080;BME280;6606;49.154;9.280;2022-07-15T06:34:00;100003.13;;;20.65;86.51
13080;BME280;6606;49.154;9.280;2022-07-15T06:36:27;100008.13;;;20.70;86.49
13080;BME280;6606;49.154;9.280;2022-07-15T06:38:56;99995.03;;;20.96;84.07
13080;BME280;6606;49.154;9.280;2022-07-15T06:41:23;99998.75;;;21.04;83.16
13080;BME280;6606;49.154;9.280;2022-07-15T06:43:50;99996.22;;;21.13;82.26
13080;BME280;6606;49.154;9.280;2022-07-15T06:46:41;99986.28;;;21.13;81.24
13080;BME280;6606;49.154;9.280;2022-07-15T06:49:07;99987.22;;;21.33;80.26
13080;BME280;6606;49.154;9.280;2022-07-15T06:51:34;99984.00;;;21.49;78.70
13080;BME280;6606;49.154;9.280;2022-07-15T06:54:03;99992.09;;;21.59;78.29
13080;BME280;6606;49.154;9.280;2022-07-15T06:56:32;99991.53;;;21.74;74.21
13080;BME280;6606;49.154;9.280;2022-07-15T06:59:00;99996.25;;;22.02;74.73
13080;BME280;6606;49.154;9.280;2022-07-15T07:01:27;99992.13;;;21.98;72.29
13080;BME280;6606;49.154;9.280;2022-07-15T07:03:54;99999.38;;;22.26;73.95
13080;BME280;6606;49.154;9.280;2022-07-15T07:06:21;99997.25;;;22.20;70.14
13080;BME280;6606;49.154;9.280;2022-07-15T07:08:48;99994.69;;;22.19;70.44
13080;BME280;6606;49.154;9.280;2022-07-15T07:11:19;100001.88;;;23.04;63.57
13080;BME280;6606;49.154;9.280;2022-07-15T07:13:47;99985.84;;;26.07;52.95
13080;BME280;6606;49.154;9.280;2022-07-15T07:16:15;99994.19;;;28.95;42.75
13080;BME280;6606;49.154;9.280;2022-07-15T07:18:41;99996.72;;;31.11;33.40
13080;BME280;6606;49.154;9.280;2022-07-15T07:21:11;99993.28;;;31.38;29.74
13080;BME280;6606;49.154;9.280;2022-07-15T07:23:37;99999.53;;;31.73;29.56
13080;BME280;6606;49.154;9.280;2022-07-15T07:26:05;99986.47;;;33.53;27.85
13080;BME280;6606;49.154;9.280;2022-07-15T07:28:33;99982.16;;;34.02;25.56
13080;BME280;6606;49.154;9.280;2022-07-15T07:31:00;99971.44;;;34.69;24.57
13080;BME280;6606;49.154;9.280;2022-07-15T07:33:27;99973.53;;;34.92;22.99
13080;BME280;6606;49.154;9.280;2022-07-15T07:35:54;99971.41;;;35.13;23.24
13080;BME280;6606;49.154;9.280;2022-07-15T07:38:20;99973.28;;;34.50;22.97
13080;BME280;6606;49.154;9.280;2022-07-15T07:40:47;99973.16;;;35.26;22.30
13080;BME280;6606;49.154;9.280;2022-07-15T07:43:14;99973.84;;;34.84;21.71
13080;BME280;6606;49.154;9.280;2022-07-15T07:45:42;99975.63;;;35.64;20.46
13080;BME280;6606;49.154;9.280;2022-07-15T07:48:09;99974.31;;;37.26;19.84
13080;BME280;6606;49.154;9.280;2022-07-15T07:50:37;99969.69;;;37.44;20.00
13080;BME280;6606;49.154;9.280;2022-07-15T07:53:03;99970.53;;;36.33;19.63
13080;BME280;6606;49.154;9.280;2022-07-15T07:55:30;99966.22;;;36.37;19.40
13080;BME280;6606;49.154;9.280;2022-07-15T07:57:58;99969.66;;;36.09;17.57
13080;BME280;6606;49.154;9.280;2022-07-15T08:00:26;99959.13;;;36.29;18.20
13080;BME280;6606;49.154;9.280;2022-07-15T08:02:55;99958.88;;;36.43;18.95
13080;BME280;6606;49.154;9.280;2022-07-15T08:05:22;99959.91;;;34.79;19.28
13080;BME280;6606;49.154;9.280;2022-07-15T08:07:49;99964.47;;;35.59;19.00
13080;BME280;6606;49.154;9.280;2022-07-15T08:10:16;99973.69;;;35.34;19.74
13080;BME280;6606;49.154;9.280;2022-07-15T08:12:44;99962.91;;;34.77;20.06
13080;BME280;6606;49.154;9.280;2022-07-15T08:15:12;99964.13;;;35.49;20.31
13080;BME280;6606;49.154;9.280;2022-07-15T08:17:39;99969.13;;;35.88;19.06
13080;BME280;6606;49.154;9.280;2022-07-15T08:20:08;99970.09;;;34.35;20.37
13080;BME280;6606;49.154;9.280;2022-07-15T08:22:36;99960.91;;;36.12;19.60
13080;BME280;6606;49.154;9.280;2022-07-15T08:25:04;99962.19;;;35.00;20.33
13080;BME280;6606;49.154;9.280;2022-07-15T08:27:31;99957.69;;;36.15;19.26
13080;BME280;6606;49.154;9.280;2022-07-15T08:29:58;99952.47;;;35.35;19.83
13080;BME280;6606;49.154;9.280;2022-07-15T08:32:24;99961.41;;;36.21;19.80
13080;BME280;6606;49.154;9.280;2022-07-15T08:34:51;99957.63;;;35.92;19.90
13080;BME280;6606;49.154;9.280;2022-07-15T08:37:19;99956.94;;;36.08;19.92
13080;BME280;6606;49.154;9.280;2022-07-15T08:39:46;99955.41;;;35.70;20.32
13080;BME280;6606;49.154;9.280;2022-07-15T08:42:13;99958.88;;;36.43;18.97
13080;BME280;6606;49.154;9.280;2022-07-15T08:44:39;99965.03;;;35.91;18.97
13080;BME280;6606;49.154;9.280;2022-07-15T08:47:06;99958.81;;;34.36;20.47
13080;BME280;6606;49.154;9.280;2022-07-15T08:49:33;99974.22;;;34.88;19.86
13080;BME280;6606;49.154;9.280;2022-07-15T08:52:05;99963.88;;;34.65;20.59
13080;BME280;6606;49.154;9.280;2022-07-15T08:54:33;99969.22;;;34.09;21.08
13080;BME280;6606;49.154;9.280;2022-07-15T08:57:01;99976.47;;;34.29;20.50
13080;BME280;6606;49.154;9.280;2022-07-15T08:59:28;99970.91;;;32.35;22.76
13080;BME280;6606;49.154;9.280;2022-07-15T09:01:54;99964.28;;;30.74;25.77
13080;BME280;6606;49.154;9.280;2022-07-15T09:04:21;99973.38;;;30.24;26.65
13080;BME280;6606;49.154;9.280;2022-07-15T09:06:49;99966.97;;;29.53;27.26
13080;BME280;6606;49.154;9.280;2022-07-15T09:09:30;99969.03;;;28.85;29.62
13080;BME280;6606;49.154;9.280;2022-07-15T09:12:01;99969.66;;;27.81;30.43
13080;BME280;6606;49.154;9.280;2022-07-15T09:14:30;99963.00;;;27.84;30.06
13080;BME280;6606;49.154;9.280;2022-07-15T09:17:19;99962.44;;;27.66;31.41
13080;BME280;6606;49.154;9.280;2022-07-15T09:20:05;99969.03;;;27.94;29.86
13080;BME280;6606;49.154;9.280;2022-07-15T09:22:47;99965.06;;;27.19;32.30
13080;BME280;6606;49.154;9.280;2022-07-15T09:25:14;99961.25;;;27.37;32.10
13080;BME280;6606;49.154;9.280;2022-07-15T09:27:44;99963.06;;;27.45;31.17
13080;BME280;6606;49.154;9.280;2022-07-15T09:30:19;99961.38;;;27.67;31.09
13080;BME280;6606;49.154;9.280;2022-07-15T09:33:05;99963.53;;;28.02;31.41
13080;BME280;6606;49.154;9.280;2022-07-15T09:35:50;99957.56;;;28.37;31.63
13080;BME280;6606;49.154;9.280;2022-07-15T09:38:31;99963.00;;;28.89;31.42
13080;BME280;6606;49.154;9.280;2022-07-15T09:40:58;99955.41;;;29.14;29.63
13080;BME280;6606;49.154;9.280;2022-07-15T09:43:27;99965.38;;;28.78;30.88
13080;BME280;6606;49.154;9.280;2022-07-15T09:45:58;99965.81;;;28.52;30.10
13080;BME280;6606;49.154;9.280;2022-07-15T09:48:26;99967.44;;;28.61;30.21
13080;BME280;6606;49.154;9.280;2022-07-15T09:50:58;99961.75;;;28.10;29.84
13080;BME280;6606;49.154;9.280;2022-07-15T09:53:25;99965.78;;;27.68;31.62
13080;BME280;6606;49.154;9.280;2022-07-15T09:55:52;99966.81;;;27.98;33.60
13080;BME280;6606;49.154;9.280;2022-07-15T09:58:19;99964.53;;;28.24;31.78
13080;BME280;6606;49.154;9.280;2022-07-15T10:00:48;99961.97;;;27.85;31.51
13080;BME280;6606;49.154;9.280;2022-07-15T10:03:16;99972.19;;;28.06;32.58
13080;BME280;6606;49.154;9.280;2022-07-15T10:05:43;99973.53;;;27.87;32.29
13080;BME280;6606;49.154;9.280;2022-07-15T10:08:13;99960.09;;;28.23;30.87
13080;BME280;6606;49.154;9.280;2022-07-15T10:10:40;99967.06;;;28.64;29.71
13080;BME280;6606;49.154;9.280;2022-07-15T10:13:19;99961.03;;;28.83;29.92
13080;BME280;6606;49.154;9.280;2022-07-15T10:15:54;99960.41;;;29.11;30.70
13080;BME280;6606;49.154;9.280;2022-07-15T10:18:39;99944.75;;;29.05;29.98
13080;BME280;6606;49.154;9.280;2022-07-15T10:21:19;99962.63;;;28.48;30.22
13080;BME280;6606;49.154;9.280;2022-07-15T10:24:00;99966.19;;;28.48;30.75
13080;BME280;6606;49.154;9.280;2022-07-15T10:26:40;99958.31;;;28.54;30.40
13080;BME280;6606;49.154;9.280;2022-07-15T10:29:10;99959.03;;;27.63;31.13
13080;BME280;6606;49.154;9.280;2022-07-15T10:31:39;99962.69;;;27.79;31.04
13080;BME280;6606;49.154;9.280;2022-07-15T10:34:19;99957.56;;;28.37;30.20
13080;BME280;6606;49.154;9.280;2022-07-15T10:37:04;99962.63;;;27.87;29.88
13080;BME280;6606;49.154;9.280;2022-07-15T10:39:55;99952.63;;;28.40;29.16
13080;BME280;6606;49.154;9.280;2022-07-15T10:42:23;99961.16;;;27.99;30.42
13080;BME280;6606;49.154;9.280;2022-07-15T10:45:04;99955.38;;;28.02;29.11
13080;BME280;6606;49.154;9.280;2022-07-15T10:47:33;99946.81;;;28.43;30.41
13080;BME280;6606;49.154;9.280;2022-07-15T10:50:01;99947.00;;;28.86;29.53
13080;BME280;6606;49.154;9.280;2022-07-15T10:53:16;99942.19;;;28.29;29.56
13080;BME280;6606;49.154;9.280;2022-07-15T10:55:44;99936.41;;;28.62;29.33
13080;BME280;6606;49.154;9.280;2022-07-15T10:58:11;99931.69;;;28.70;29.12
13080;BME280;6606;49.154;9.280;2022-07-15T11:00:38;99927.81;;;28.65;31.15
13080;BME280;6606;49.154;9.280;2022-07-15T11:03:07;99920.03;;;29.06;28.22
13080;BME280;6606;49.154;9.280;2022-07-15T11:05:41;99914.91;;;29.40;28.06
13080;BME280;6606;49.154;9.280;2022-07-15T11:11:47;99903.16;;;30.25;29.29
13080;BME280;6606;49.154;9.280;2022-07-15T11:14:40;99903.28;;;29.52;29.60
13080;BME280;6606;49.154;9.280;2022-07-15T11:17:06;99908.00;;;28.56;29.88
13080;BME280;6606;49.154;9.280;2022-07-15T11:19:34;99907.63;;;28.06;29.99
13080;BME280;6606;49.154;9.280;2022-07-15T11:22:01;99903.22;;;28.94;29.31
13080;BME280;6606;49.154;9.280;2022-07-15T11:24:28;99900.09;;;29.27;28.39
13080;BME280;6606;49.154;9.280;2022-07-15T11:26:59;99888.53;;;29.10;28.58
13080;BME280;6606;49.154;9.280;2022-07-15T11:29:29;99882.47;;;29.30;28.71
13080;BME280;6606;49.154;9.280;2022-07-15T11:32:06;99883.56;;;29.14;27.60
13080;BME280;6606;49.154;9.280;2022-07-15T11:34:38;99879.09;;;29.28;26.49
13080;BME280;6606;49.154;9.280;2022-07-15T11:37:05;99875.94;;;29.46;26.81
13080;BME280;6606;49.154;9.280;2022-07-15T11:39:32;99873.94;;;29.18;28.10
13080;BME280;6606;49.154;9.280;2022-07-15T11:42:00;99889.44;;;29.54;27.00
13080;BME280;6606;49.154;9.280;2022-07-15T11:44:46;99893.06;;;29.03;26.79
13080;BME280;6606;49.154;9.280;2022-07-15T11:47:12;99877.94;;;28.71;27.16
13080;BME280;6606;49.154;9.280;2022-07-15T11:49:39;99881.03;;;28.09;27.09
13080;BME280;6606;49.154;9.280;2022-07-15T11:52:08;99884.56;;;28.62;27.61
13080;BME280;6606;49.154;9.280;2022-07-15T11:54:37;99878.63;;;28.73;27.51
13080;BME280;6606;49.154;9.280;2022-07-15T11:57:07;99876.97;;;29.66;27.59
13080;BME280;6606;49.154;9.280;2022-07-15T11:59:34;99878.91;;;29.51;26.89
13080;BME280;6606;49.154;9.280;2022-07-15T12:02:03;99878.06;;;29.93;26.80
13080;BME280;6606;49.154;9.280;2022-07-15T12:04:30;99876.88;;;29.17;26.35
13080;BME280;6606;49.154;9.280;2022-07-15T12:06:57;99878.56;;;29.03;26.78
13080;BME280;6606;49.154;9.280;2022-07-15T12:09:24;99874.50;;;29.71;26.87
13080;BME280;6606;49.154;9.280;2022-07-15T12:11:51;99865.66;;;29.69;26.12
13080;BME280;6606;49.154;9.280;2022-07-15T12:14:21;99867.50;;;29.90;26.48
13080;BME280;6606;49.154;9.280;2022-07-15T12:16:49;99876.03;;;30.02;25.95
13080;BME280;6606;49.154;9.280;2022-07-15T12:19:18;99874.44;;;29.43;27.15
13080;BME280;6606;49.154;9.280;2022-07-15T12:21:47;99870.84;;;30.14;26.12
13080;BME280;6606;49.154;9.280;2022-07-15T12:24:16;99868.16;;;30.20;26.04
13080;BME280;6606;49.154;9.280;2022-07-15T12:26:57;99865.41;;;29.92;25.95
13080;BME280;6606;49.154;9.280;2022-07-15T12:29:27;99874.75;;;28.38;28.44
13080;BME280;6606;49.154;9.280;2022-07-15T12:31:57;99873.94;;;27.99;28.67
13080;BME280;6606;49.154;9.280;2022-07-15T12:34:48;99870.75;;;29.00;28.91
13080;BME280;6606;49.154;9.280;2022-07-15T12:37:16;99869.25;;;29.12;26.93
13080;BME280;6606;49.154;9.280;2022-07-15T12:39:53;99862.53;;;28.78;26.60
13080;BME280;6606;49.154;9.280;2022-07-15T12:42:20;99869.81;;;29.65;27.20
13080;BME280;6606;49.154;9.280;2022-07-15T12:45:05;99862.88;;;30.47;25.50
13080;BME280;6606;49.154;9.280;2022-07-15T12:47:31;99856.31;;;30.13;26.18
13080;BME280;6606;49.154;9.280;2022-07-15T12:49:59;99854.94;;;29.96;25.58
13080;BME280;6606;49.154;9.280;2022-07-15T12:52:31;99859.91;;;28.70;27.90
13080;BME280;6606;49.154;9.280;2022-07-15T12:54:59;99868.03;;;27.96;29.28
13080;BME280;6606;49.154;9.280;2022-07-15T12:57:32;99866.69;;;27.92;29.62
13080;BME280;6606;49.154;9.280;2022-07-15T13:00:03;99864.56;;;27.87;29.50
13080;BME280;6606;49.154;9.280;2022-07-15T13:02:31;99857.25;;;27.79;29.02
13080;BME280;6606;49.154;9.280;2022-07-15T13:04:58;99860.03;;;27.94;29.48
13080;BME280;6606;49.154;9.280;2022-07-15T13:07:25;99855.59;;;28.46;29.23
13080;BME280;6606;49.154;9.280;2022-07-15T13:09:52;99861.38;;;27.98;30.33
13080;BME280;6606;49.154;9.280;2022-07-15T13:12:18;99860.22;;;27.70;29.11
13080;BME280;6606;49.154;9.280;2022-07-15T13:14:45;99865.47;;;27.94;29.69
13080;BME280;6606;49.154;9.280;2022-07-15T13:17:13;99853.31;;;28.20;28.78
13080;BME280;6606;49.154;9.280;2022-07-15T13:19:40;99850.47;;;28.87;26.36
13080;BME280;6606;49.154;9.280;2022-07-15T13:22:06;99846.34;;;29.71;26.97